Time;durP1;ratioP1;P1;durP2;ratioP2;P2;SDS_P1;SDS_P2;PMS_P1;PMS_P2;Temp;Humidity;BMP_temperature;BMP_pressure;BME280_temperature;BME280_humidity;BME280_pressure;Samples;Min_cycle;Max_cycle;Signal;HPM_P1;HPM_P2
2023/03/09 00:01:30;;;;;;;3.75;1.77;;;;;;;10.69;100.00;97173.53;12178258;19;20006;-78
2023/03/09 00:05:31;;;;;;;4.28;1.13;;;;;;;10.67;100.00;97172.19;12199697;19;20011;-78
2023/03/09 00:09:33;;;;;;;2.03;1.10;;;;;;;10.64;100.00;97175.59;12203691;19;20369;-78
2023/03/09 00:13:35;;;;;;;3.00;1.70;;;;;;;10.58;100.00;97172.16;12170133;19;20031;-78
2023/03/09 00:17:37;;;;;;;3.50;1.53;;;;;;;10.59;100.00;97167.44;12198188;19;20483;-78
2023/03/09 00:21:40;;;;;;;5.35;2.13;;;;;;;10.51;100.00;97187.50;12194153;19;21044;-79
2023/03/09 00:25:42;;;;;;;5.43;2.38;;;;;;;10.49;100.00;97187.78;12170125;19;20014;-78
2023/03/09 00:29:44;;;;;;;4.97;2.05;;;;;;;10.47;100.00;97179.88;12194290;19;20791;-78
2023/03/09 00:33:49;;;;;;;5.10;2.25;;;;;;;10.36;100.00;97194.19;12195361;19;20759;-78
2023/03/09 00:37:51;;;;;;;5.00;1.90;;;;;;;10.32;100.00;97195.94;12173648;19;20018;-78
2023/03/09 00:41:52;;;;;;;7.20;2.10;;;;;;;10.22;100.00;97203.28;12198492;19;20050;-78
2023/03/09 00:45:54;;;;;;;6.07;1.92;;;;;;;10.15;100.00;97207.59;12191716;19;20011;-78
2023/03/09 00:49:56;;;;;;;4.53;1.88;;;;;;;10.09;100.00;97200.59;12171961;19;20007;-78
2023/03/09 00:53:57;;;;;;;4.00;1.80;;;;;;;10.02;100.00;97209.25;12190562;19;20023;-79
2023/03/09 00:57:59;;;;;;;3.83;1.13;;;;;;;9.93;100.00;97203.66;12192037;19;20388;-78
2023/03/09 01:02:01;;;;;;;3.93;1.23;;;;;;;9.89;100.00;97210.09;12170677;19;20007;-78
2023/03/09 01:06:04;;;;;;;2.22;0.90;;;;;;;9.88;100.00;97214.78;12186396;19;20331;-79
2023/03/09 01:10:06;;;;;;;2.80;1.10;;;;;;;9.82;100.00;97216.03;12196059;19;20009;-78
2023/03/09 01:14:08;;;;;;;3.17;1.02;;;;;;;9.79;100.00;97197.41;12170554;19;20030;-78
2023/03/09 01:18:12;;;;;;;3.25;0.90;;;;;;;9.70;100.00;97227.56;12190490;19;20011;-79
2023/03/09 01:22:14;;;;;;;2.75;1.00;;;;;;;9.70;100.00;97232.25;12194735;19;20014;-79
2023/03/09 01:26:16;;;;;;;4.97;0.80;;;;;;;9.63;100.00;97227.13;12171533;19;20010;-78
2023/03/09 01:30:19;;;;;;;3.28;0.90;;;;;;;9.60;100.00;97222.25;12195110;19;20003;-78
2023/03/09 01:34:20;;;;;;;2.73;0.67;;;;;;;9.62;100.00;97230.19;12170364;19;20047;-77
2023/03/09 01:38:22;;;;;;;3.60;0.70;;;;;;;9.57;100.00;97220.13;12193843;19;20086;-78
2023/03/09 01:42:24;;;;;;;2.65;0.73;;;;;;;9.57;100.00;97223.66;12218939;19;20054;-78
2023/03/09 01:46:28;;;;;;;2.28;1.00;;;;;;;9.58;100.00;97230.81;12219034;19;20006;-79
2023/03/09 01:50:34;;;;;;;2.58;1.08;;;;;;;9.58;100.00;97219.81;12196828;19;20055;-79
2023/03/09 01:55:07;;;;;;;2.83;0.90;;;;;;;9.55;100.00;97245.19;12192964;19;20019;-79
2023/03/09 01:59:10;;;;;;;1.73;0.85;;;;;;;9.51;100.00;97243.34;12176589;19;20003;-78
2023/03/09 02:03:13;;;;;;;;;;;;;;;9.52;100.00;97259.53;12185466;19;20003;-79
2023/03/09 02:07:18;;;;;;;3.15;1.00;;;;;;;9.53;100.00;97282.34;12187259;19;19919;-78
2023/03/09 02:11:21;;;;;;;3.20;0.90;;;;;;;9.48;100.00;97291.47;12190099;19;20479;-78
2023/03/09 02:15:24;;;;;;;3.28;0.98;;;;;;;9.49;100.00;97284.88;12198263;19;20356;-78
2023/03/09 02:19:36;;;;;;;1.58;0.90;;;;;;;9.49;100.00;97304.13;12183964;19;20074;-78
2023/03/09 02:23:54;;;;;;;4.47;1.15;;;;;;;9.46;100.00;97314.88;12204872;19;20017;-79
2023/03/09 02:27:59;;;;;;;4.15;1.23;;;;;;;9.43;100.00;97310.84;12210154;19;20007;-79
2023/03/09 02:32:00;;;;;;;2.95;1.10;;;;;;;9.40;100.00;97310.59;12210674;19;19998;-79
2023/03/09 02:36:02;;;;;;;3.63;1.27;;;;;;;9.36;100.00;97318.66;12273044;19;19991;-79
2023/03/09 02:40:34;;;;;;;6.53;2.00;;;;;;;9.33;100.00;97308.25;12251662;19;20037;-80
2023/03/09 02:44:39;;;;;;;3.90;2.03;;;;;;;9.33;100.00;97327.50;12188855;19;20030;-79
2023/03/09 02:48:41;;;;;;;3.87;1.63;;;;;;;9.32;100.00;97342.38;12211070;19;20011;-79
2023/03/09 02:52:43;;;;;;;6.82;2.33;;;;;;;9.27;100.00;97335.03;12183418;19;20010;-79
2023/03/09 02:56:48;;;;;;;5.15;1.83;;;;;;;9.27;100.00;97345.19;12210521;19;20054;-78
2023/03/09 03:00:49;;;;;;;3.28;1.40;;;;;;;9.24;100.00;97354.03;12207086;19;20003;-78
2023/03/09 03:04:51;;;;;;;4.03;1.75;;;;;;;9.20;100.00;97351.09;12181228;19;20002;-78
2023/03/09 03:08:55;;;;;;;8.20;1.67;;;;;;;9.19;100.00;97357.72;12201881;19;20354;-79
2023/03/09 03:12:57;;;;;;;4.95;2.03;;;;;;;9.17;100.00;97367.38;12193173;19;20595;-78
2023/03/09 03:17:00;;;;;;;6.35;2.47;;;;;;;9.17;100.00;97378.38;12168495;19;20030;-76
2023/03/09 03:21:02;;;;;;;8.40;3.13;;;;;;;9.19;100.00;97387.94;12193844;19;20010;-77
2023/03/09 03:25:06;;;;;;;6.90;2.75;;;;;;;9.21;100.00;97398.63;12192091;19;20259;-77
2023/03/09 03:29:12;;;;;;;7.38;2.88;;;;;;;9.22;100.00;97408.47;12181018;19;20463;-78
2023/03/09 03:33:14;;;;;;;6.20;2.63;;;;;;;9.23;100.00;97429.38;12196978;19;20086;-77
2023/03/09 03:37:17;;;;;;;4.82;2.50;;;;;;;9.26;100.00;97442.50;12185186;19;20007;-76
2023/03/09 03:41:20;;;;;;;5.70;2.63;;;;;;;9.28;100.00;97457.59;12193709;19;20002;-77
2023/03/09 03:45:26;;;;;;;4.68;1.67;;;;;;;9.31;100.00;97467.13;12191303;19;20035;-77
2023/03/09 03:49:28;;;;;;;3.08;1.65;;;;;;;9.37;100.00;97471.47;12176228;19;20030;-77
2023/03/09 03:53:32;;;;;;;3.95;1.52;;;;;;;9.32;100.00;97472.34;12192888;19;20756;-76
2023/03/09 03:57:34;;;;;;;2.83;1.65;;;;;;;9.32;100.00;97488.84;12196541;19;20053;-77
2023/03/09 04:01:36;;;;;;;2.77;1.27;;;;;;;9.34;100.00;97494.06;12176915;19;20004;-77
2023/03/09 04:05:41;;;;;;;4.13;1.45;;;;;;;9.32;100.00;97507.25;12193609;19;21249;-76
2023/03/09 04:09:44;;;;;;;3.03;1.30;;;;;;;9.32;100.00;97515.50;12195022;19;20010;-76
2023/03/09 04:13:48;;;;;;;4.78;0.90;;;;;;;9.35;100.00;97523.16;12171341;19;20010;-77
2023/03/09 04:17:51;;;;;;;2.55;1.60;;;;;;;9.33;100.00;97533.63;12194202;19;20007;-76
2023/03/09 04:21:54;;;;;;;1.65;0.95;;;;;;;9.35;100.00;97539.66;12197756;19;20074;-76
2023/03/09 04:26:00;;;;;;;2.08;1.00;;;;;;;9.30;100.00;97556.22;12176291;19;19999;-77
2023/03/09 04:30:28;;;;;;;2.25;0.90;;;;;;;9.32;100.00;97562.22;12194549;19;20027;-77
2023/03/09 04:34:32;;;;;;;2.60;0.70;;;;;;;9.31;100.00;97569.66;12172347;19;20021;-77
2023/03/09 04:38:34;;;;;;;6.47;1.27;;;;;;;9.39;100.00;97579.16;12198768;19;20007;-77
2023/03/09 04:42:37;;;;;;;2.42;0.90;;;;;;;9.38;100.00;97588.53;12196727;19;20288;-77
2023/03/09 04:46:39;;;;;;;2.92;0.82;;;;;;;9.42;100.00;97600.56;12177003;19;20010;-76
2023/03/09 04:50:44;;;;;;;1.67;0.80;;;;;;;9.40;100.00;97602.81;12195425;19;20803;-76
2023/03/09 04:54:48;;;;;;;1.27;0.63;;;;;;;9.40;100.00;97613.81;12189518;19;20002;-77
2023/03/09 04:58:51;;;;;;;3.08;0.93;;;;;;;9.38;100.00;97627.00;12171401;19;20002;-77
2023/03/09 05:02:58;;;;;;;2.72;1.30;;;;;;;9.41;100.00;97622.84;12190487;19;20049;-77
2023/03/09 05:06:59;;;;;;;4.18;1.13;;;;;;;9.42;100.00;97639.03;12196420;19;20031;-77
2023/03/09 05:11:02;;;;;;;;;;;;;;;9.41;100.00;97634.66;12173712;19;20087;-77
2023/03/09 05:15:05;;;;;;;5.00;1.20;;;;;;;9.40;100.00;97657.78;12194956;19;19994;-77
2023/03/09 05:19:10;;;;;;;4.00;1.30;;;;;;;9.42;100.00;97663.78;12193363;19;20011;-77
2023/03/09 05:23:14;;;;;;;2.75;1.40;;;;;;;9.42;100.00;97669.28;12173434;19;20030;-77
2023/03/09 05:27:17;;;;;;;4.20;1.63;;;;;;;9.43;100.00;97689.34;12195055;19;20018;-78
2023/03/09 05:31:19;;;;;;;3.45;1.30;;;;;;;9.35;100.00;97685.31;12176860;19;20003;-77
2023/03/09 05:35:22;;;;;;;3.95;1.42;;;;;;;9.42;100.00;97693.19;12197624;19;20005;-78
2023/03/09 05:39:23;;;;;;;3.43;1.60;;;;;;;9.41;100.00;97695.13;12198580;19;20344;-77
2023/03/09 05:43:26;;;;;;;4.17;1.83;;;;;;;9.44;100.00;97708.28;12170236;19;20292;-77
2023/03/09 05:47:28;;;;;;;4.18;1.52;;;;;;;9.46;100.00;97711.59;12196016;19;20363;-77
2023/03/09 05:51:29;;;;;;;7.10;2.30;;;;;;;9.46;100.00;97718.97;12191388;19;20005;-77
2023/03/09 05:55:32;;;;;;;7.82;1.88;;;;;;;9.45;100.00;97736.59;12171917;19;20939;-77
2023/03/09 05:59:33;;;;;;;6.95;2.33;;;;;;;9.48;100.00;97744.25;12193904;19;20006;-80
2023/03/09 06:03:36;;;;;;;4.45;2.03;;;;;;;9.44;100.00;97740.47;12199720;19;20019;-79
2023/03/09 06:07:37;;;;;;;10.65;3.35;;;;;;;9.48;100.00;97742.31;12178210;19;20033;-79
2023/03/09 06:11:39;;;;;;;8.60;2.85;;;;;;;9.52;100.00;97756.31;12198166;19;20030;-78
2023/03/09 06:15:42;;;;;;;11.07;3.45;;;;;;;9.48;100.00;97756.06;12233948;19;20002;-79
2023/03/09 06:19:47;;;;;;;12.02;3.15;;;;;;;9.52;100.00;97775.56;12199421;19;20010;-81
2023/03/09 06:23:54;;;;;;;10.57;2.78;;;;;;;9.49;100.00;97778.91;12194242;19;20504;-81
2023/03/09 06:27:56;;;;;;;14.80;3.58;;;;;;;9.49;100.00;97785.22;12188019;19;20023;-80
2023/03/09 06:32:01;;;;;;;10.00;3.30;;;;;;;9.47;100.00;97794.88;12170350;19;20018;-82
2023/03/09 06:36:07;;;;;;;10.40;3.08;;;;;;;9.45;100.00;97786.91;12192267;19;20468;-79
2023/03/09 06:40:12;;;;;;;10.70;3.03;;;;;;;9.50;100.00;97795.09;12187586;19;20070;-80
2023/03/09 06:44:14;;;;;;;11.15;4.30;;;;;;;9.52;100.00;97792.06;12136237;19;20014;-80
2023/03/09 06:48:19;;;;;;;13.50;4.28;;;;;;;9.56;100.00;97793.94;12195653;19;20010;-80
2023/03/09 06:52:21;;;;;;;9.30;3.60;;;;;;;9.64;100.00;97810.88;12169153;19;20067;-81
2023/03/09 06:56:23;;;;;;;17.27;3.80;;;;;;;9.63;100.00;97820.25;12192554;19;20480;-82
2023/03/09 07:00:25;;;;;;;13.83;4.73;;;;;;;9.66;100.00;97825.16;12201511;19;20597;-81
2023/03/09 07:04:31;;;;;;;11.95;3.47;;;;;;;9.75;100.00;97837.16;12185800;19;20662;-80
2023/03/09 07:08:34;;;;;;;8.35;3.90;;;;;;;9.77;100.00;97829.44;12233946;19;20107;-81
2023/03/09 07:12:35;;;;;;;6.47;2.78;;;;;;;9.79;100.00;97843.72;12233245;19;20469;-80
2023/03/09 07:16:37;;;;;;;10.80;2.42;;;;;;;9.84;100.00;97851.09;12183855;19;20083;-81
2023/03/09 07:20:40;;;;;;;11.50;2.73;;;;;;;9.84;100.00;97856.59;12208066;19;20496;-81
2023/03/09 07:24:43;;;;;;;5.40;2.05;;;;;;;9.81;100.00;97856.09;12202142;19;20300;-81
2023/03/09 07:28:44;;;;;;;7.57;2.72;;;;;;;9.82;100.00;97860.47;12184823;19;20035;-79
2023/03/09 07:32:47;;;;;;;10.67;2.20;;;;;;;9.92;100.00;97870.53;12202677;19;20444;-81
2023/03/09 07:36:49;;;;;;;8.27;2.17;;;;;;;9.95;100.00;97877.38;12208181;19;20006;-81
2023/03/09 07:40:51;;;;;;;7.95;1.98;;;;;;;10.09;100.00;97892.06;12185429;19;20010;-81
2023/03/09 07:44:53;;;;;;;8.07;2.30;;;;;;;10.24;100.00;97894.63;12205088;19;20015;-80
2023/03/09 07:48:55;;;;;;;7.97;1.55;;;;;;;10.27;100.00;97904.28;12202265;19;19998;-80
2023/03/09 07:52:57;;;;;;;5.43;1.70;;;;;;;10.36;100.00;97910.75;12178717;19;20010;-81
2023/03/09 07:56:59;;;;;;;4.60;1.75;;;;;;;10.47;100.00;97900.44;12202107;19;20011;-81
2023/03/09 08:01:02;;;;;;;7.78;2.40;;;;;;;10.65;100.00;97927.19;12207529;19;20007;-81
2023/03/09 08:05:07;;;;;;;5.85;2.00;;;;;;;10.65;100.00;97915.34;12179315;19;20713;-83
2023/03/09 08:09:14;;;;;;;4.13;1.40;;;;;;;10.63;100.00;97925.84;12208739;19;20014;-82
2023/03/09 08:13:18;;;;;;;3.97;1.40;;;;;;;10.70;100.00;97932.59;12181569;19;20454;-81
2023/03/09 08:17:20;;;;;;;5.88;2.10;;;;;;;10.82;100.00;97934.91;12206556;19;20042;-82
2023/03/09 08:21:22;;;;;;;5.23;2.03;;;;;;;10.90;100.00;97942.53;12208032;19;20019;-82
2023/03/09 08:25:24;;;;;;;3.83;1.90;;;;;;;10.87;100.00;97947.81;12189791;19;20517;-81
2023/03/09 08:29:26;;;;;;;5.00;1.77;;;;;;;10.82;100.00;97961.66;12228131;19;20045;-82
2023/03/09 08:33:37;;;;;;;3.63;1.52;;;;;;;10.92;100.00;97961.53;12269648;19;20002;-82
2023/03/09 08:37:38;;;;;;;5.18;1.98;;;;;;;10.89;100.00;97967.63;12229944;19;20010;-81
2023/03/09 08:41:40;;;;;;;5.97;2.05;;;;;;;11.07;100.00;97974.28;12210638;19;20019;-82
2023/03/09 08:45:42;;;;;;;7.97;1.80;;;;;;;11.09;100.00;97975.59;12200873;19;20018;-81
2023/03/09 08:49:48;;;;;;;5.45;1.95;;;;;;;10.96;100.00;97981.84;12183274;19;20034;-80
2023/03/09 08:53:50;;;;;;;5.38;2.28;;;;;;;11.02;100.00;97991.69;12196937;19;20010;-84
2023/03/09 08:57:52;;;;;;;4.47;1.87;;;;;;;10.94;100.00;97998.66;12203913;19;20066;-84
2023/03/09 09:01:53;;;;;;;9.18;2.47;;;;;;;11.05;100.00;98009.56;12181851;19;20006;-81
2023/03/09 09:06:11;;;;;;;4.85;2.13;;;;;;;11.18;100.00;98009.66;12201865;19;20006;-81
2023/03/09 09:10:14;;;;;;;8.55;2.83;;;;;;;11.24;100.00;98015.91;12202987;19;20010;-80
2023/03/09 09:14:39;;;;;;;5.43;2.47;;;;;;;11.38;100.00;98016.78;12174050;19;20003;-81
2023/03/09 09:18:41;;;;;;;7.20;2.45;;;;;;;11.47;100.00;98024.41;12199646;19;20023;-82
2023/03/09 09:22:45;;;;;;;6.47;3.20;;;;;;;11.53;100.00;98037.81;12174252;19;20097;-81
2023/03/09 09:26:47;;;;;;;8.60;3.00;;;;;;;11.50;100.00;98049.44;12211461;19;20037;-81
2023/03/09 09:30:56;;;;;;;11.05;3.20;;;;;;;11.56;100.00;98051.00;12199941;19;20273;-82
2023/03/09 09:34:59;;;;;;;9.57;2.92;;;;;;;11.58;100.00;98053.47;12176033;19;20007;-81
2023/03/09 09:39:01;;;;;;;10.18;2.97;;;;;;;11.49;100.00;98063.53;12204424;19;20559;-81
2023/03/09 09:43:09;;;;;;;11.30;3.05;;;;;;;11.51;100.00;98066.81;12205057;19;20707;-82
2023/03/09 09:47:18;;;;;;;12.07;3.20;;;;;;;11.56;100.00;98069.50;12182971;19;20006;-84
2023/03/09 09:51:39;;;;;;;11.20;3.22;;;;;;;11.53;100.00;98076.41;12204175;19;20007;-81
2023/03/09 09:55:42;;;;;;;11.15;3.03;;;;;;;11.73;100.00;98078.06;12173996;19;20015;-81
2023/03/09 09:59:57;;;;;;;7.35;2.90;;;;;;;11.79;100.00;98093.41;12194983;19;20014;-82
2023/03/09 10:04:06;;;;;;;13.93;3.00;;;;;;;11.85;100.00;98083.16;12195089;19;20036;-81
2023/03/09 10:08:33;;;;;;;11.90;2.78;;;;;;;11.88;100.00;98096.34;12177706;19;20009;-81
2023/03/09 10:12:35;;;;;;;8.80;2.97;;;;;;;11.80;100.00;98099.75;12195642;19;20091;-81
2023/03/09 10:16:42;;;;;;;9.77;3.25;;;;;;;11.78;100.00;98111.09;12172867;19;20043;-81
2023/03/09 10:20:49;;;;;;;7.57;3.50;;;;;;;11.90;100.00;98121.72;12202667;19;21200;-80
2023/03/09 10:24:54;;;;;;;7.93;3.00;;;;;;;12.08;100.00;98114.53;12235004;19;20011;-81
2023/03/09 10:29:03;;;;;;;11.88;2.92;;;;;;;12.19;100.00;98121.50;12176168;19;20024;-80
2023/03/09 10:33:07;;;;;;;10.77;2.60;;;;;;;12.36;100.00;98118.19;12194717;19;20002;-82
2023/03/09 10:37:16;;;;;;;8.40;2.92;;;;;;;12.48;100.00;98123.25;12206150;19;19998;-82
2023/03/09 10:41:19;;;;;;;11.55;2.70;;;;;;;12.46;100.00;98125.47;12194507;19;20006;-81
2023/03/09 10:45:31;;;;;;;12.45;3.30;;;;;;;12.58;100.00;98136.84;12213340;19;20015;-81
2023/03/09 10:49:34;;;;;;;9.57;2.50;;;;;;;12.57;100.00;98151.81;12199842;19;20018;-80
2023/03/09 10:53:43;;;;;;;11.63;2.83;;;;;;;12.78;100.00;98149.50;12255356;19;20010;-80
2023/03/09 10:57:55;;;;;;;5.80;2.25;;;;;;;12.81;100.00;98135.06;12225232;19;20006;-82
2023/03/09 11:01:59;;;;;;;9.90;2.95;;;;;;;12.90;100.00;98158.09;12186697;19;20010;-82
2023/03/09 11:06:37;;;;;;;8.80;1.75;;;;;;;12.92;100.00;98155.03;12208387;19;20007;-81
2023/03/09 11:10:38;;;;;;;6.85;1.70;;;;;;;12.88;100.00;98159.53;12187560;19;20045;-79
2023/03/09 11:14:46;;;;;;;6.93;2.08;;;;;;;12.91;100.00;98161.69;12205208;19;20740;-80
2023/03/09 11:19:02;;;;;;;5.95;1.60;;;;;;;12.93;99.46;98173.25;12208377;19;19999;-79
2023/03/09 11:23:29;;;;;;;5.88;1.60;;;;;;;13.09;100.00;98165.50;12185570;19;20006;-78
2023/03/09 11:27:36;;;;;;;7.90;1.45;;;;;;;13.07;100.00;98173.28;12206411;19;21289;-80
2023/03/09 11:31:41;;;;;;;14.25;2.20;;;;;;;13.20;100.00;98178.00;12185738;19;20027;-81
2023/03/09 11:35:48;;;;;;;4.10;1.42;;;;;;;13.44;99.80;98183.34;12204123;19;20573;-79
2023/03/09 11:39:55;;;;;;;8.05;2.20;;;;;;;13.73;96.21;98182.19;12204905;19;20034;-79
2023/03/09 11:44:10;;;;;;;8.75;2.17;;;;;;;13.72;95.75;98175.03;12176125;19;20526;-78
2023/03/09 11:48:24;;;;;;;6.32;1.60;;;;;;;13.69;94.94;98187.53;12202225;19;20018;-78
2023/03/09 11:52:32;;;;;;;6.18;1.55;;;;;;;14.00;95.69;98176.59;12179904;19;20006;-78
2023/03/09 11:56:38;;;;;;;6.00;1.40;;;;;;;14.12;94.85;98176.84;12197122;19;20009;-78
2023/03/09 12:00:46;;;;;;;5.85;1.88;;;;;;;14.12;94.76;98187.94;12200826;19;20517;-79
2023/03/09 12:04:52;;;;;;;5.40;1.70;;;;;;;14.01;92.89;98174.63;12202420;19;20479;-80
2023/03/09 12:08:57;;;;;;;8.52;2.35;;;;;;;14.07;92.25;98176.19;12182804;19;20513;-80
2023/03/09 12:13:04;;;;;;;5.78;1.70;;;;;;;14.42;92.27;98168.94;12174455;19;20017;-79
2023/03/09 12:17:15;;;;;;;7.70;2.10;;;;;;;14.69;87.63;98168.00;12201719;19;20030;-79
2023/03/09 12:21:26;;;;;;;9.13;2.70;;;;;;;14.62;85.68;98173.19;12199595;19;20007;-80
2023/03/09 12:25:29;;;;;;;9.70;1.75;;;;;;;14.62;86.53;98172.38;12181540;19;20010;-79
2023/03/09 12:29:36;;;;;;;4.30;1.70;;;;;;;14.61;87.56;98170.75;12203163;19;20030;-79
2023/03/09 12:33:41;;;;;;;5.35;1.55;;;;;;;14.63;86.35;98176.78;12199928;19;20271;-79
2023/03/09 12:37:45;;;;;;;4.80;1.85;;;;;;;14.44;85.41;98169.44;12180753;19;20086;-82
2023/03/09 12:41:59;;;;;;;11.52;2.05;;;;;;;14.58;86.33;98167.47;12202700;19;20126;-79
2023/03/09 12:46:46;;;;;;;10.25;2.40;;;;;;;14.54;83.49;98168.41;12176342;19;20036;-80
2023/03/09 12:51:14;;;;;;;6.35;2.00;;;;;;;14.40;84.95;98167.63;12200117;19;20018;-80
2023/03/09 12:55:23;;;;;;;7.30;1.88;;;;;;;14.49;82.70;98163.78;12178076;19;20046;-80
2023/03/09 12:59:27;;;;;;;5.57;1.70;;;;;;;14.59;81.19;98168.28;12193560;19;20401;-81
2023/03/09 13:03:41;;;;;;;6.35;1.25;;;;;;;14.77;81.48;98152.56;12200815;19;20006;-79
2023/03/09 13:07:57;;;;;;;8.05;2.13;;;;;;;15.60;77.55;98149.13;12183972;19;20017;-81
2023/03/09 13:12:15;;;;;;;6.57;1.52;;;;;;;16.13;70.57;98148.06;12200253;19;20052;-82
2023/03/09 13:16:36;;;;;;;3.80;1.50;;;;;;;16.29;66.84;98154.75;12178683;19;20013;-81
2023/03/09 13:20:42;;;;;;;5.95;1.25;;;;;;;16.19;68.06;98138.44;12204161;19;20080;-80
2023/03/09 13:24:46;;;;;;;6.43;1.33;;;;;;;16.18;71.32;98147.88;12180877;19;20006;-80
2023/03/09 13:28:51;;;;;;;4.43;1.40;;;;;;;16.38;70.10;98132.53;12204542;19;20467;-80
2023/03/09 13:32:56;;;;;;;4.35;2.00;;;;;;;16.51;70.27;98125.13;12199304;19;20019;-80
2023/03/09 13:37:04;;;;;;;3.35;1.30;;;;;;;16.49;68.16;98139.38;12184228;19;20054;-82
2023/03/09 13:41:17;;;;;;;5.15;0.90;;;;;;;16.16;71.70;98144.66;12209486;19;20010;-81
2023/03/09 13:45:22;;;;;;;5.00;1.20;;;;;;;16.23;70.75;98147.72;12221149;19;20041;-81
2023/03/09 13:49:30;;;;;;;3.05;1.00;;;;;;;15.80;72.58;98148.53;12188626;19;20026;-82
2023/03/09 13:53:32;;;;;;;7.00;1.65;;;;;;;15.34;76.30;98149.06;12233242;19;20096;-81
2023/03/09 13:57:38;;;;;;;6.38;1.20;;;;;;;15.01;78.72;98147.47;12254683;19;20003;-81
2023/03/09 14:01:40;;;;;;;6.85;1.52;;;;;;;14.68;80.23;98137.84;12229298;19;20007;-81
2023/03/09 14:05:53;;;;;;;4.25;1.52;;;;;;;14.50;82.47;98140.47;12251549;19;20014;-80
2023/03/09 14:10:36;;;;;;;5.25;1.00;;;;;;;14.73;81.35;98134.94;12245573;19;20002;-83
2023/03/09 14:14:38;;;;;;;3.42;1.00;;;;;;;14.86;79.05;98131.25;12279466;19;20002;-80
2023/03/09 14:18:54;;;;;;;6.10;1.63;;;;;;;15.21;78.92;98142.50;12279163;19;20010;-80
2023/03/09 14:22:55;;;;;;;6.50;1.17;;;;;;;15.70;77.42;98129.41;12244908;19;20007;-80
2023/03/09 14:27:17;;;;;;;2.38;1.00;;;;;;;16.45;75.14;98126.44;12254381;19;20034;-81
2023/03/09 14:31:21;;;;;;;5.18;1.23;;;;;;;16.92;72.37;98123.75;12198328;19;20006;-81
2023/03/09 14:35:28;;;;;;;7.50;1.52;;;;;;;16.88;71.76;98128.34;12223269;19;20050;-83
2023/03/09 14:39:46;;;;;;;6.57;1.38;;;;;;;16.71;68.95;98132.78;12215926;19;20016;-84
2023/03/09 14:43:49;;;;;;;5.15;1.45;;;;;;;16.36;69.34;98129.28;12190374;19;20006;-80
2023/03/09 14:47:56;;;;;;;5.57;1.88;;;;;;;16.28;71.39;98119.78;12214969;19;20042;-81
2023/03/09 14:52:00;;;;;;;5.68;1.33;;;;;;;16.04;72.96;98119.47;12187739;19;20455;-83
2023/03/09 14:56:02;;;;;;;7.27;1.60;;;;;;;15.71;73.87;98114.41;12211578;19;20046;-81
2023/03/09 15:00:05;;;;;;;6.37;1.43;;;;;;;15.50;75.24;98112.22;12212293;19;20346;-83
2023/03/09 15:04:13;;;;;;;6.07;1.33;;;;;;;15.38;75.95;98106.47;12187078;19;20480;-82
2023/03/09 15:08:15;;;;;;;4.70;1.50;;;;;;;15.17;77.38;98114.56;12211991;19;20014;-82
2023/03/09 15:12:20;;;;;;;3.35;1.30;;;;;;;14.85;78.79;98110.19;12210073;19;20002;-81
2023/03/09 15:16:22;;;;;;;6.05;1.83;;;;;;;14.83;79.72;98109.69;12183549;19;20010;-81
2023/03/09 15:20:25;;;;;;;7.07;1.48;;;;;;;14.82;79.45;98105.28;12210681;19;20030;-82
2023/03/09 15:24:44;;;;;;;7.18;1.40;;;;;;;14.85;79.59;98106.63;12189791;19;20555;-82
2023/03/09 15:28:46;;;;;;;9.90;2.03;;;;;;;14.72;80.29;98108.31;12214098;19;20002;-80
2023/03/09 15:32:48;;;;;;;5.03;1.58;;;;;;;14.78;79.73;98104.28;12256953;19;20003;-80
2023/03/09 15:36:50;;;;;;;10.03;1.87;;;;;;;14.87;79.82;98094.03;12213152;19;20014;-81
2023/03/09 15:40:51;;;;;;;11.40;1.50;;;;;;;14.89;78.56;98091.78;12217084;19;20010;-82
2023/03/09 15:44:54;;;;;;;7.47;1.60;;;;;;;14.87;76.62;98088.50;12206557;19;20019;-83
2023/03/09 15:48:55;;;;;;;8.80;1.80;;;;;;;14.87;75.93;98080.19;12183292;19;20127;-80
2023/03/09 15:52:57;;;;;;;11.32;2.50;;;;;;;14.85;76.33;98081.66;12208560;19;20018;-79
2023/03/09 15:56:59;;;;;;;5.50;1.15;;;;;;;14.76;77.92;98084.41;12206419;19;20020;-80
2023/03/09 16:01:04;;;;;;;9.20;1.83;;;;;;;14.76;77.43;98085.22;12186569;19;20007;-81
2023/03/09 16:05:09;;;;;;;6.90;1.55;;;;;;;14.58;79.09;98078.75;12197110;19;20007;-79
2023/03/09 16:09:11;;;;;;;7.45;1.90;;;;;;;14.47;79.82;98082.91;12208171;19;20472;-80
2023/03/09 16:13:13;;;;;;;17.03;3.07;;;;;;;14.41;80.16;98075.88;12183838;19;20014;-80
2023/03/09 16:17:15;;;;;;;7.45;1.95;;;;;;;14.36;80.92;98076.00;12209691;19;19999;-82
2023/03/09 16:21:17;;;;;;;10.63;2.30;;;;;;;14.26;81.91;98065.19;12201793;19;20034;-80
2023/03/09 16:25:18;;;;;;;8.87;1.97;;;;;;;14.18;82.43;98063.16;12182460;19;20010;-80
2023/03/09 16:29:23;;;;;;;7.17;1.87;;;;;;;14.06;82.72;98075.63;12204271;19;20010;-80
2023/03/09 16:33:25;;;;;;;12.50;2.78;;;;;;;13.86;84.80;98076.13;12198573;19;20280;-80
2023/03/09 16:37:26;;;;;;;9.68;2.20;;;;;;;13.82;84.87;98072.34;12182738;19;20019;-80
2023/03/09 16:41:28;;;;;;;8.55;2.20;;;;;;;13.73;86.29;98075.06;12204367;19;20011;-80
2023/03/09 16:45:30;;;;;;;9.27;2.60;;;;;;;13.65;86.42;98068.34;12202679;19;20010;-80
2023/03/09 16:49:32;;;;;;;11.32;2.95;;;;;;;13.56;87.28;98064.63;12182388;19;20007;-81
2023/03/09 16:53:34;;;;;;;9.65;2.15;;;;;;;13.49;87.12;98057.91;12191117;19;20002;-80
2023/03/09 16:57:36;;;;;;;9.73;1.88;;;;;;;13.38;87.57;98066.44;12202072;19;20035;-81
2023/03/09 17:01:38;;;;;;;9.82;2.35;;;;;;;13.32;87.82;98061.31;12180123;19;20011;-80
2023/03/09 17:05:42;;;;;;;9.50;2.22;;;;;;;13.22;88.58;98059.59;12197472;19;20015;-80
2023/03/09 17:09:44;;;;;;;12.60;2.53;;;;;;;13.14;88.86;98040.94;12173978;19;20022;-80
2023/03/09 17:13:48;;;;;;;8.50;2.87;;;;;;;12.99;89.93;98039.31;12196308;19;20026;-80
2023/03/09 17:17:50;;;;;;;15.05;2.80;;;;;;;12.86;91.16;98046.50;12201058;19;20011;-80
2023/03/09 17:21:51;;;;;;;13.18;2.22;;;;;;;12.80;91.30;98039.44;12178056;19;20034;-80
2023/03/09 17:25:53;;;;;;;9.52;2.85;;;;;;;12.72;91.98;98038.22;12198956;19;20003;-80
2023/03/09 17:29:58;;;;;;;13.55;2.67;;;;;;;12.66;92.38;98031.16;12201575;19;20334;-80
2023/03/09 17:33:59;;;;;;;7.38;2.00;;;;;;;12.55;93.22;98029.72;12176536;19;20017;-80
2023/03/09 17:38:01;;;;;;;18.20;2.55;;;;;;;12.50;93.64;98024.31;12201233;19;20011;-80
2023/03/09 17:42:03;;;;;;;9.20;2.20;;;;;;;12.43;94.23;98033.00;12201243;19;20027;-79
2023/03/09 17:46:09;;;;;;;10.03;2.67;;;;;;;12.40;94.47;98035.53;12177796;19;20527;-80
2023/03/09 17:50:11;;;;;;;12.23;2.90;;;;;;;12.28;95.71;98034.09;12200775;19;20031;-80
2023/03/09 17:54:13;;;;;;;18.08;4.65;;;;;;;12.21;96.28;98025.38;12194778;19;20010;-82
2023/03/09 17:58:14;;;;;;;8.32;2.17;;;;;;;12.16;98.02;98027.41;12179041;19;20055;-82
2023/03/09 18:02:17;;;;;;;16.95;3.55;;;;;;;12.17;97.60;98024.38;12197918;19;20475;-81
2023/03/09 18:06:21;;;;;;;;;;;;;;;12.11;98.78;98022.00;12211321;19;20477;-80
2023/03/09 18:10:43;;;;;;;14.35;2.80;;;;;;;12.13;98.21;98015.03;12180848;19;19915;-82
2023/03/09 18:14:45;;;;;;;19.90;4.13;;;;;;;12.15;97.75;98010.03;12196490;19;20007;-82
2023/03/09 18:18:47;;;;;;;13.90;3.75;;;;;;;12.10;98.18;98012.88;12171991;19;20062;-82
2023/03/09 18:22:48;;;;;;;8.98;2.55;;;;;;;12.05;98.40;98002.75;12196236;19;20030;-81
2023/03/09 18:26:50;;;;;;;12.52;2.17;;;;;;;12.07;97.95;98002.44;12197966;19;20124;-81
2023/03/09 18:30:52;;;;;;;9.05;2.00;;;;;;;12.08;97.76;97990.31;12177202;19;20495;-81
2023/03/09 18:34:54;;;;;;;9.83;3.33;;;;;;;12.05;98.06;97983.44;12202138;19;20011;-81
2023/03/09 18:38:55;;;;;;;23.50;2.88;;;;;;;12.02;97.77;97973.00;12199498;19;20029;-82
2023/03/09 18:42:57;;;;;;;8.80;2.47;;;;;;;12.00;97.95;97980.75;12178646;19;20028;-80
2023/03/09 18:46:59;;;;;;;13.65;2.60;;;;;;;12.09;97.13;97978.13;12198948;19;20006;-82
2023/03/09 18:51:04;;;;;;;13.88;2.40;;;;;;;12.13;96.29;97972.81;12200898;19;20010;-80
2023/03/09 18:55:07;;;;;;;12.63;2.22;;;;;;;12.13;95.78;97968.09;12182172;19;19994;-80